Merrittstown, PA (15463)

8:19 AM EDT on July 27, 2016 (GMT -0400)
HillTop Rices Landing | | Change Station

Elev 1118 ft 39.93 °N, 79.95 °W | Updated 19 seconds ago

Mostly Cloudy
Mostly Cloudy
71.3 °F
Feels Like 71.3 °F
N
0.0
Wind Variable Wind from South
Gusts 1.0 mph

Today
High -- | Low -- °F
--% Chance of Precip.
Yesterday
High -- | Low -- °F
Precip. -- in
Pressure 30.01 in
Visibility 10.0 miles
Clouds Mostly Cloudy 900 ft
Mostly Cloudy 10000 ft
Dew Point 70 °F
Humidity 95%
Rainfall 0.00 in
Snow Depth Not available.
6:13 AM 8:37 PM
Last Quarter, 44% visible
METAR KMGW 271153Z 00000KT 10SM BKN009 BKN100 23/21 A3004 RMK AO2 CIG 008V012 SLP162 T02330211 10233 20228 50006
Pressure 30.01 in
Visibility 10.0 miles
Clouds Mostly Cloudy 900 ft
Mostly Cloudy 10000 ft
Dew Point 70 °F
Humidity 95%
Rainfall 0.00 in
Snow Depth Not available.
6:13 AM 8:37 PM
Last Quarter, 44% visible
METAR KMGW 271153Z 00000KT 10SM BKN009 BKN100 23/21 A3004 RMK AO2 CIG 008V012 SLP162 T02330211 10233 20228 50006

10-Day Weather Forecast

Almanac

Astronomy

Jul. 27, 2016 Rise Set
Actual Time
Civil Twilight
Nautical Twilight
Astronomical Twilight
Moon
Length of Visible Light
Length of Day
Tomorrow will be .
, % of the Moon is Illuminated

Today's Extremes

State Highs State Lows

Community

WunderPhotos

Upload Photos

1,927,836 photos uploaded!

WunderBlog® & News

Nearby

Air Quality

  Air Quality AQ Index Pollutant
Not available.

Snow Depth

Station Depth Elevation

Earthquake Activity

City Distance Mag. Time & Date
Minimum magnitude displayed is 2.5.

Coastal Water Temperatures

Place Temperature

Stations

Nearby Weather Stations

Station Location Temp. Windchill Dew Point Humidity Wind Precip. Elev Updated Type
                   

Watches & Warnings

There are currently no watches in effect.